Latest Weather Observations for Tennant Creek

IDD60801

Issued at 1:31 pm CST Sunday 14 February 2016 (issued every 30 minutes, with the page automatically refreshed every 10 minutes)

About weather observations | Map of weather stations | Latest weather observations for NT | Other Formats
Station Details ID: 015135 Name: TENNANT CREEK AIRPORT Lat: -19.64 Lon: 134.18 Height: 375.7 m
Data from the previous 72 hours. | See also: Recent months at Tennant Creek
Date/Time
CST
Temp
°C
App
Temp
°C
Dew
Point
Rel
Hum
%
Delta-T
°C
Wind Press
QNH
hPa
Press
MSL
hPa
Rain
since 9 am
mm
Dir
 
Spd
km/h
Gust
km/h
Spd
kts
Gust
kts
14/01:30pm 38.9 34.7 4.0 11 19.1 ESE 15 30 8 16 1008.9 - 0.0
14/01:00pm 38.6 33.4 2.4 10 19.3 SE 19 24 10 13 1009.4 - 0.0
14/12:30pm 38.3 36.0 5.5 13 18.3 NE 7 20 4 11 1009.8 - 0.0
14/12:00pm 38.1 36.4 9.8 18 16.8 S 9 22 5 12 1010.1 1007.1 0.0
14/11:30am 37.6 35.5 8.2 16 17.0 S 9 15 5 8 1010.5 - 0.0
14/11:00am 36.7 34.8 8.9 18 16.2 S 9 13 5 7 1010.8 - 0.0
14/10:30am 36.4 34.8 11.4 22 15.1 SSW 11 17 6 9 1011.0 - 0.0
14/10:00am 35.4 33.8 11.7 23 14.3 SSW 11 17 6 9 1011.3 - 0.0
14/09:30am 34.5 33.8 12.0 25 13.6 SSW 7 11 4 6 1011.2 - 0.0
14/09:00am 33.5 32.8 12.1 27 12.9 SW 7 9 4 5 1011.2 1008.3 0.0
14/08:30am 32.2 32.1 13.4 32 11.5 SSW 6 11 3 6 1011.1 - 0.0
14/08:00am 30.3 30.1 12.9 34 10.5 SW 6 9 3 5 1011.1 - 0.0
14/07:30am 28.6 27.7 11.3 34 10.1 S 7 11 4 6 1011.0 - 0.0
14/07:00am 27.2 26.0 10.4 35 9.6 SSE 7 11 4 6 1010.8 - 0.0
14/06:30am 25.5 25.0 12.1 43 7.8 SE 6 7 3 4 1010.5 - 0.0
14/06:00am 24.7 24.7 14.2 52 6.3 S 7 9 4 5 1010.2 1007.2 0.0
14/05:30am 24.3 26.3 16.1 60 5.1 CALM 0 0 0 0 1009.9 - 0.0
14/05:00am 24.9 24.7 14.7 53 6.2 SSW 9 13 5 7 1009.7 - 0.0
14/04:30am 25.4 25.7 15.1 53 6.3 S 7 9 4 5 1009.5 - 0.0
14/04:00am 27.6 26.9 11.5 36 9.4 SE 6 7 3 4 1009.1 - 0.0
14/03:30am 27.2 27.1 13.8 43 8.1 SSE 7 9 4 5 1009.0 - 0.0
14/03:00am 27.1 25.6 11.9 38 8.9 S 11 13 6 7 1009.0 1006.1 0.0
14/02:30am 26.8 26.8 13.7 44 7.9 E 6 7 3 4 1008.8 - 0.0
14/02:00am 26.9 28.1 15.8 50 6.9 NNW 4 6 2 3 1009.0 - 0.0
14/01:30am 27.5 27.6 14.0 43 8.2 NNW 6 7 3 4 1009.2 - 0.0
14/01:00am 28.1 28.6 15.0 44 8.1 N 6 7 3 4 1009.5 - 0.0
14/12:30am 28.3 28.8 14.0 41 8.7 NNE 4 7 2 4 1009.6 - 0.0
14/12:00am 28.1 28.8 15.6 46 7.8 NNE 6 7 3 4 1010.0 1007.0 0.0
 
Date/Time
CST
Temp
°C
App
Temp
°C
Dew
Point
Rel
Hum
%
Delta-T
°C
Wind Press
QNH
hPa
Press
MSL
hPa
Rain
since 9 am
mm
Dir
 
Spd
km/h
Gust
km/h
Spd
kts
Gust
kts
13/11:30pm 28.9 29.4 15.0 42 8.6 NE 6 7 3 4 1010.4 - 0.0
13/11:00pm 29.7 29.5 14.6 39 9.3 NNE 9 11 5 6 1010.5 - 0.0
13/10:30pm 29.7 30.0 14.9 40 9.2 NNE 7 9 4 5 1010.3 - 0.0
13/10:00pm 29.9 30.1 14.1 38 9.7 N 6 9 3 5 1010.2 - 0.0
13/09:30pm 30.0 31.1 16.7 44 8.5 N 6 7 3 4 1010.1 - 0.0
13/09:00pm 30.5 30.8 15.1 39 9.6 N 7 9 4 5 1009.8 1006.8 0.0
13/08:30pm 32.2 31.9 14.5 34 11.0 NNE 9 11 5 6 1009.6 - 0.0
13/08:00pm 33.3 31.5 10.8 25 13.3 NNE 11 11 6 6 1009.2 - 0.0
13/07:30pm 34.3 32.5 9.3 21 14.5 NNE 9 13 5 7 1008.8 - 0.0
13/07:00pm 36.0 33.4 7.6 17 16.2 NNE 11 17 6 9 1008.6 - 0.0
13/06:30pm 37.2 34.4 8.7 17 16.6 NE 13 24 7 13 1008.3 - 0.0
13/06:00pm 38.0 34.6 7.5 15 17.5 ENE 15 22 8 12 1008.1 1005.1 0.0
13/05:30pm 38.6 36.7 7.5 15 17.9 E 7 11 4 6 1007.8 - 0.0
13/05:00pm 38.2 36.6 8.0 16 17.4 ENE 6 7 3 4 1007.8 - 0.0
13/04:30pm 38.7 35.6 7.1 14 18.1 NE 13 20 7 11 1007.9 - 0.0
13/04:00pm 38.7 33.3 6.4 14 18.3 E 24 33 13 18 1008.0 - 0.0
13/03:30pm 38.7 34.1 6.4 14 18.3 ENE 20 30 11 16 1008.2 - 0.0
13/03:00pm 38.9 35.7 6.9 14 18.3 NNE 13 22 7 12 1008.4 1005.5 0.0
13/02:30pm 38.9 36.5 7.2 14 18.2 ESE 9 15 5 8 1008.7 - 0.0
13/02:00pm 39.5 36.1 6.1 13 18.9 E 13 20 7 11 1008.9 - 0.0
13/01:30pm 38.9 34.6 5.1 12 18.8 E 17 30 9 16 1009.4 - 0.0
13/01:00pm 38.6 35.0 5.1 13 18.6 E 13 24 7 13 1009.9 - 0.0
13/12:30pm 38.7 35.0 6.4 14 18.3 NE 15 30 8 16 1010.3 - 0.0
13/12:00pm 37.0 33.9 7.3 16 16.9 SE 13 24 7 13 1010.7 1007.8 0.0
13/11:30am 36.5 34.9 7.9 17 16.4 E 6 11 3 6 1011.1 - 0.0
13/11:00am 35.8 34.5 10.0 20 15.2 ESE 7 13 4 7 1011.5 - 0.0
13/10:30am 35.1 34.3 11.7 24 14.1 E 7 11 4 6 1011.9 - 0.0
13/10:00am 34.1 33.0 10.8 24 13.8 ESE 7 11 4 6 1012.2 - 0.0
13/09:30am 33.1 31.9 10.2 24 13.4 SSW 7 11 4 6 1012.3 - 0.0
13/09:00am 31.8 30.7 10.6 27 12.4 SSW 7 13 4 7 1012.3 1009.3 0.0
13/08:30am 30.4 30.0 13.0 34 10.5 SW 7 11 4 6 1012.2 - 0.0
13/08:00am 28.8 30.5 15.1 43 8.5 CALM 0 6 0 3 1011.8 - 0.0
13/07:30am 26.7 29.1 16.9 55 6.2 CALM 0 0 0 0 1011.6 - 0.0
13/07:00am 24.4 25.8 16.5 61 4.9 SSE 4 6 2 3 1011.2 - 0.0
13/06:30am 23.4 23.8 15.2 60 5.0 S 7 11 4 6 1011.0 - 0.0
13/06:00am 25.6 25.2 12.9 45 7.5 ENE 7 13 4 7 1010.5 1007.5 0.0
13/05:30am 26.0 25.5 12.8 44 7.8 E 7 9 4 5 1010.4 - 0.0
13/05:00am 25.2 25.3 14.5 51 6.5 E 7 9 4 5 1010.4 - 0.0
13/04:30am 25.2 25.0 13.7 49 6.9 E 7 9 4 5 1010.3 - 0.0
13/04:00am 25.7 25.0 13.3 46 7.4 SE 9 13 5 7 1010.2 - 0.0
13/03:30am 25.8 26.2 15.4 52 6.4 E 7 9 4 5 1009.9 - 0.0
13/03:00am 25.5 25.8 14.6 51 6.6 E 6 7 3 4 1009.9 1006.9 0.0
13/02:30am 25.8 27.3 16.6 56 5.8 ESE 4 6 2 3 1010.0 - 0.0
13/02:00am 26.3 27.8 15.6 51 6.6 E 2 11 1 6 1010.4 - 0.0
13/01:30am 27.0 28.1 15.5 49 7.1 E 4 7 2 4 1010.7 - 0.0
13/01:00am 26.8 28.7 15.7 50 6.9 CALM 0 4 0 2 1010.9 - 0.0
13/12:30am 28.1 27.9 13.7 41 8.7 ENE 7 9 4 5 1011.0 - 0.0
13/12:00am 28.3 27.4 11.3 34 9.9 E 7 9 4 5 1011.4 1008.5 0.0
 
Date/Time
CST
Temp
°C
App
Temp
°C
Dew
Point
Rel
Hum
%
Delta-T
°C
Wind Press
QNH
hPa
Press
MSL
hPa
Rain
since 9 am
mm
Dir
 
Spd
km/h
Gust
km/h
Spd
kts
Gust
kts
12/11:30pm 29.2 28.3 10.5 31 10.8 E 6 9 3 5 1011.5 - 0.0
12/11:00pm 29.8 28.9 11.2 31 10.9 ENE 7 11 4 6 1011.3 - 0.0
12/10:30pm 29.8 29.0 11.7 32 10.7 E 7 9 4 5 1010.9 - 0.0
12/10:00pm 30.3 29.2 10.7 29 11.4 E 7 7 4 4 1010.6 - 0.0
12/09:30pm 30.9 29.4 10.7 28 11.8 E 9 9 5 5 1010.5 - 0.0
12/09:00pm 30.9 29.5 10.9 29 11.7 E 9 9 5 5 1010.3 1007.3 0.0
12/08:30pm 31.3 30.2 10.8 28 12.0 ENE 7 9 4 5 1010.2 - 0.0
12/08:00pm 31.9 30.1 9.5 25 12.9 E 9 11 5 6 1010.0 - 0.0
12/07:30pm 32.8 30.9 9.1 23 13.6 E 9 11 5 6 1009.7 - 0.0
12/07:00pm 34.4 31.7 7.5 19 15.2 E 11 15 6 8 1009.5 - 0.0
12/06:30pm 35.6 31.2 6.4 16 16.3 E 19 24 10 13 1009.0 - 0.0
12/06:00pm 36.7 31.9 4.4 13 17.6 ESE 19 30 10 16 1008.7 1005.8 0.0
12/05:30pm 37.3 33.8 5.4 14 17.7 E 13 17 7 9 1008.5 - 0.0
12/05:00pm 37.4 32.5 4.9 13 17.9 ESE 20 28 11 15 1008.4 - 0.0
12/04:47pm 37.5 33.3 5.5 14 17.8 E 17 28 9 15 1008.5 - 0.0
12/04:30pm 37.3 31.8 6.1 14 17.5 ENE 24 32 13 17 1008.6 - 0.0
12/04:18pm 37.2 32.6 5.8 14 17.5 E 19 41 10 22 1008.6 - 0.0
12/04:00pm 37.3 32.7 5.7 14 17.6 E 19 30 10 16 1008.7 - 0.0
12/03:51pm 37.6 32.4 5.3 13 17.9 E 22 30 12 16 1008.8 - 0.0
12/03:30pm 37.5 32.7 5.8 14 17.7 E 20 32 11 17 1008.9 - 0.0
12/03:00pm 37.2 31.7 5.8 14 17.5 E 24 35 13 19 1009.5 1006.5 0.0
12/02:30pm 36.9 32.3 6.5 15 17.1 E 20 28 11 15 1009.7 - 0.0
12/02:21pm 37.0 32.9 6.4 15 17.2 E 17 32 9 17 1009.8 - 0.0
12/02:07pm 36.3 32.4 6.9 16 16.6 E 17 33 9 18 1010.0 - 0.0
12/02:00pm 36.9 32.6 7.2 16 16.9 E 19 30 10 16 1010.1 - 0.0
12/01:30pm 35.8 32.6 9.8 20 15.3 E 17 28 9 15 1010.4 - 0.0
12/01:21pm 36.1 32.9 9.8 20 15.5 ENE 17 30 9 16 1010.7 - 0.0
12/01:06pm 36.4 32.4 10.6 21 15.4 ENE 22 35 12 19 1010.8 - 0.0
12/01:00pm 36.7 33.2 10.3 20 15.7 E 19 33 10 18 1010.9 - 0.0
12/12:30pm 35.7 31.3 9.0 19 15.5 E 22 33 12 18 1011.3 - 0.0
12/12:00pm 35.6 33.2 12.8 25 14.0 E 17 28 9 15 1011.7 1008.8 0.0
12/11:30am 34.9 32.0 12.4 25 13.7 E 19 30 10 16 1012.2 - 0.0
12/11:00am 35.0 33.9 14.4 29 12.9 ENE 13 22 7 12 1012.5 - 0.0
12/10:30am 33.6 33.3 15.4 33 11.5 NNE 11 22 6 12 1012.7 - 0.0
12/10:00am 33.2 34.8 18.3 41 9.8 N 7 13 4 7 1012.9 - 0.0
12/09:30am 32.1 33.5 18.6 44 8.9 N 9 13 5 7 1013.1 - 0.0
12/09:00am 30.6 31.7 18.0 47 8.2 NNE 9 13 5 7 1013.2 1010.3 0.0
12/08:30am 30.0 30.4 17.2 46 8.2 NE 11 15 6 8 1013.0 - 0.0
12/08:00am 28.9 28.6 15.4 44 8.4 E 11 13 6 7 1012.8 - 0.0
12/07:30am 27.3 27.0 14.5 45 7.8 ENE 9 13 5 7 1012.4 - 0.0
12/07:00am 25.6 25.5 14.0 48 7.0 E 7 9 4 5 1011.9 - 0.0
12/06:30am 24.2 23.7 13.8 52 6.2 E 9 9 5 5 1011.5 - 0.0
12/06:00am 24.3 23.8 13.7 51 6.3 E 9 11 5 6 1011.0 1008.1 0.0
12/05:30am 24.6 24.1 13.7 50 6.5 E 9 11 5 6 1010.6 - 0.0
12/05:00am 25.3 24.3 13.4 47 7.1 E 11 13 6 7 1010.4 - 0.0
12/04:30am 25.9 24.9 13.3 45 7.5 E 11 13 6 7 1010.3 - 0.0
12/04:00am 26.2 25.2 13.5 45 7.6 E 11 13 6 7 1010.3 - 0.0
12/03:30am 26.8 25.7 13.2 43 8.1 E 11 13 6 7 1010.2 - 0.0
12/03:00am 27.2 25.9 13.6 43 8.2 ENE 13 17 7 9 1010.4 1007.4 0.0
12/02:30am 28.8 27.4 12.3 36 9.8 E 11 15 6 8 1010.3 - 0.0
12/02:00am 28.5 27.6 13.6 40 9.0 E 11 15 6 8 1010.4 - 0.0
12/01:30am 28.6 27.3 13.8 40 9.0 E 13 15 7 8 1010.5 - 0.0
12/01:00am 29.4 28.0 13.4 37 9.7 ESE 13 20 7 11 1010.6 - 0.0
12/12:30am 28.4 28.8 15.2 44 8.2 E 7 11 4 6 1010.8 - 0.0
12/12:00am 28.5 28.8 15.1 44 8.3 ESE 7 11 4 6 1011.0 1008.1 0.0
 
Date/Time
CST
Temp
°C
App
Temp
°C
Dew
Point
Rel
Hum
%
Delta-T
°C
Wind Press
QNH
hPa
Press
MSL
hPa
Rain
since 9 am
mm
Dir
 
Spd
km/h
Gust
km/h
Spd
kts
Gust
kts
11/11:30pm 29.0 28.6 15.3 43 8.5 E 11 13 6 7 1010.9 - 0.0
11/11:00pm 29.5 29.1 15.2 41 8.9 E 11 13 6 7 1011.0 - 0.0
11/10:30pm 29.9 29.5 15.1 40 9.2 E 11 13 6 7 1010.9 - 0.0
11/10:00pm 30.1 29.6 15.0 40 9.4 E 11 13 6 7 1010.7 - 0.0
11/09:30pm 30.5 30.4 14.9 38 9.7 E 9 13 5 7 1010.4 - 0.0
11/09:00pm 31.1 30.4 14.2 35 10.4 E 11 13 6 7 1010.1 1007.1 0.0
11/08:30pm 31.5 30.8 14.2 35 10.7 ENE 11 13 6 7 1009.6 - 0.0
11/08:00pm 32.1 31.3 13.9 33 11.2 E 11 13 6 7 1009.2 - 0.0
11/07:30pm 32.2 31.5 14.3 33 11.1 E 11 13 6 7 1008.7 - 0.0
11/07:00pm 33.6 32.1 13.0 28 12.6 ENE 13 20 7 11 1008.3 - 0.0
11/06:30pm 34.5 32.1 12.5 26 13.4 E 17 26 9 14 1007.9 - 0.0
11/06:00pm 35.8 32.1 11.4 23 14.7 E 22 32 12 17 1007.6 1004.6 0.0
11/05:30pm 36.1 34.1 12.7 24 14.4 ENE 15 20 8 11 1007.4 - 0.0
11/05:00pm 36.5 32.7 12.3 23 14.8 E 24 32 13 17 1007.4 - 0.0
11/04:30pm 35.8 32.8 12.7 25 14.2 E 20 32 11 17 1007.4 - 0.0
11/04:00pm 36.6 33.8 13.2 24 14.5 E 20 33 11 18 1007.4 - 0.0
11/03:30pm 36.1 32.7 13.6 26 14.0 E 24 32 13 17 1007.6 - 0.0
11/03:00pm 35.9 33.2 13.5 26 13.9 E 20 33 11 18 1007.8 1004.8 0.0
11/02:30pm 34.6 32.7 14.3 29 12.7 ESE 17 30 9 16 1008.1 - 0.0
11/02:00pm 35.5 33.9 15.0 29 13.0 SE 17 24 9 13 1008.4 - 0.0

Other Formats:

Comma delimited format used in spreadsheet applications
http://www.bom.gov.au/fwo/IDD60801/IDD60801.94238.axf

JavaScript Object Notation format (JSON) in row-major order
http://www.bom.gov.au/fwo/IDD60801/IDD60801.94238.json